Time;durP1;ratioP1;P1;durP2;ratioP2;P2;SDS_P1;SDS_P2;PMS_P1;PMS_P2;Temp;Humidity;BMP_temperature;BMP_pressure;BME280_temperature;BME280_humidity;BME280_pressure;Samples;Min_cycle;Max_cycle;Signal;HPM_P1;HPM_P2
2022/08/21 00:01:50;;;;;;;1.90;1.35;;;18.70;99.90;;;;;;5013461;28;20030;-69
2022/08/21 00:04:16;;;;;;;1.83;1.65;;;18.70;99.90;;;;;;5013621;28;20034;-69
2022/08/21 00:06:42;;;;;;;2.15;1.90;;;18.60;99.90;;;;;;5013933;28;20060;-69
2022/08/21 00:09:08;;;;;;;2.25;1.63;;;18.60;99.90;;;;;;5013511;28;20061;-69
2022/08/21 00:11:37;;;;;;;1.90;1.60;;;18.60;99.90;;;;;;5012837;28;20449;-70
2022/08/21 00:14:05;;;;;;;1.77;1.58;;;18.60;99.90;;;;;;5013439;28;20117;-69
2022/08/21 00:16:31;;;;;;;2.15;1.60;;;18.60;99.90;;;;;;5013749;28;20443;-69
2022/08/21 00:18:57;;;;;;;1.60;1.50;;;18.60;99.90;;;;;;5013115;28;20034;-69
2022/08/21 00:21:22;;;;;;;2.50;2.28;;;18.60;99.90;;;;;;5013692;28;20120;-69
2022/08/21 00:23:48;;;;;;;3.00;1.77;;;18.60;99.90;;;;;;5012941;28;20029;-70
2022/08/21 00:26:14;;;;;;;2.22;1.70;;;18.60;99.90;;;;;;5013267;28;20026;-70
2022/08/21 00:28:40;;;;;;;2.55;1.88;;;18.60;99.90;;;;;;5013518;28;20045;-69
2022/08/21 00:31:05;;;;;;;2.25;1.92;;;18.50;99.90;;;;;;5013098;28;20518;-69
2022/08/21 00:33:32;;;;;;;1.90;1.45;;;18.50;99.90;;;;;;5013492;28;20030;-69
2022/08/21 00:35:58;;;;;;;3.60;1.77;;;18.50;99.90;;;;;;5012800;28;20387;-69
2022/08/21 00:38:23;;;;;;;2.25;1.65;;;18.50;99.90;;;;;;5013851;28;20030;-69
2022/08/21 00:40:54;;;;;;;4.47;2.05;;;18.50;99.90;;;;;;5012999;28;20022;-69
2022/08/21 00:43:27;;;;;;;2.75;1.92;;;18.50;99.90;;;;;;5013159;28;20057;-69
2022/08/21 00:45:53;;;;;;;3.47;2.10;;;18.50;99.90;;;;;;5012844;28;20077;-69
2022/08/21 00:48:18;;;;;;;2.95;2.05;;;18.50;99.90;;;;;;5013242;28;20049;-70
2022/08/21 00:50:56;;;;;;;3.70;2.20;;;18.50;99.90;;;;;;5013428;28;20026;-69
2022/08/21 00:53:23;;;;;;;3.42;2.17;;;18.50;99.90;;;;;;5013108;28;20026;-69
2022/08/21 00:55:49;;;;;;;2.00;1.83;;;18.50;99.90;;;;;;5012992;28;20064;-72
2022/08/21 00:58:16;;;;;;;2.40;1.95;;;18.50;99.90;;;;;;5013167;28;20053;-69
2022/08/21 01:00:44;;;;;;;2.22;2.03;;;18.50;99.90;;;;;;5013053;28;20395;-69
2022/08/21 01:03:14;;;;;;;1.70;1.60;;;18.50;99.90;;;;;;5012388;28;20396;-69
2022/08/21 01:05:41;;;;;;;2.85;2.40;;;18.50;99.90;;;;;;5012941;28;20038;-69
2022/08/21 01:08:08;;;;;;;2.92;2.08;;;18.50;99.90;;;;;;5012530;28;20030;-69
2022/08/21 01:10:35;;;;;;;3.08;2.28;;;18.60;99.90;;;;;;5012908;28;20033;-69
2022/08/21 01:13:01;;;;;;;2.05;1.80;;;18.50;99.90;;;;;;5012790;28;20108;-69
2022/08/21 01:15:34;;;;;;;2.25;1.83;;;18.60;99.90;;;;;;5012839;28;20056;-69
2022/08/21 01:18:02;;;;;;;3.13;2.03;;;18.60;99.90;;;;;;5012484;28;20037;-69
2022/08/21 01:20:28;;;;;;;2.85;2.30;;;18.60;99.90;;;;;;5012790;28;20050;-69
2022/08/21 01:22:54;;;;;;;3.40;2.50;;;18.60;99.90;;;;;;5012061;28;20029;-70
2022/08/21 01:25:19;;;;;;;2.67;2.25;;;18.60;99.90;;;;;;5012457;28;20045;-69
2022/08/21 01:27:45;;;;;;;3.45;2.58;;;18.60;99.90;;;;;;5009489;28;20029;-69
2022/08/21 01:30:21;;;;;;;3.67;2.47;;;18.70;99.90;;;;;;5011998;28;20037;-69
2022/08/21 01:32:47;;;;;;;2.60;2.22;;;18.70;99.90;;;;;;5012799;28;20030;-69
2022/08/21 01:35:15;;;;;;;3.45;2.60;;;18.70;99.90;;;;;;5012189;28;20084;-69
2022/08/21 01:37:41;;;;;;;4.25;2.85;;;18.70;99.90;;;;;;5012609;28;20026;-69
2022/08/21 01:40:09;;;;;;;3.78;2.40;;;18.70;99.90;;;;;;5012187;28;20065;-70
2022/08/21 01:42:35;;;;;;;2.97;2.58;;;18.80;99.90;;;;;;5012481;28;20026;-69
2022/08/21 01:45:00;;;;;;;2.83;2.25;;;18.80;99.90;;;;;;5011420;28;20121;-69
2022/08/21 01:47:26;;;;;;;4.05;2.60;;;18.70;99.90;;;;;;5012652;28;20117;-69
2022/08/21 01:49:52;;;;;;;3.10;2.08;;;18.80;99.90;;;;;;5012441;28;20030;-69
2022/08/21 01:52:19;;;;;;;3.08;2.30;;;18.70;99.90;;;;;;5012481;28;20109;-69
2022/08/21 01:54:45;;;;;;;3.15;2.25;;;18.70;99.90;;;;;;5012485;28;20104;-69
2022/08/21 01:57:12;;;;;;;2.35;2.00;;;18.70;99.90;;;;;;5012107;28;20025;-69
2022/08/21 01:59:38;;;;;;;2.85;2.55;;;18.70;99.90;;;;;;5012538;28;20053;-69
2022/08/21 02:02:05;;;;;;;3.15;2.70;;;18.60;99.90;;;;;;5012076;28;20112;-70
2022/08/21 02:04:30;;;;;;;2.72;2.00;;;18.60;99.90;;;;;;5012570;28;20030;-69
2022/08/21 02:06:56;;;;;;;2.30;1.80;;;18.60;99.90;;;;;;5012050;28;20088;-70
2022/08/21 02:09:22;;;;;;;1.98;1.77;;;18.60;99.90;;;;;;5012402;28;20034;-69
2022/08/21 02:11:48;;;;;;;2.72;2.15;;;18.60;99.90;;;;;;5012392;28;20359;-70
2022/08/21 02:14:14;;;;;;;3.05;2.40;;;18.50;99.90;;;;;;5011942;28;20030;-69
2022/08/21 02:16:42;;;;;;;4.05;2.47;;;18.50;99.90;;;;;;5012228;28;20030;-69
2022/08/21 02:19:08;;;;;;;3.53;2.42;;;18.50;99.90;;;;;;5011371;28;20044;-69
2022/08/21 02:21:34;;;;;;;2.90;2.60;;;18.50;99.90;;;;;;5012647;28;20475;-69
2022/08/21 02:24:00;;;;;;;3.65;2.65;;;18.50;99.90;;;;;;5011511;28;20038;-70
2022/08/21 02:26:26;;;;;;;2.85;2.40;;;18.50;99.90;;;;;;5012045;28;20029;-68
2022/08/21 02:28:51;;;;;;;3.58;2.63;;;18.50;99.90;;;;;;5012138;28;20029;-69
2022/08/21 02:31:17;;;;;;;2.72;2.50;;;18.50;99.90;;;;;;5011765;28;20030;-69
2022/08/21 02:33:43;;;;;;;3.10;2.25;;;18.40;99.90;;;;;;5011896;28;20057;-69
2022/08/21 02:36:11;;;;;;;2.28;1.90;;;18.40;99.90;;;;;;5015176;28;20022;-69
2022/08/21 02:38:38;;;;;;;2.60;2.00;;;18.40;99.90;;;;;;5015639;28;20026;-69
2022/08/21 02:41:07;;;;;;;4.25;2.13;;;18.30;99.90;;;;;;5015280;28;20022;-69
2022/08/21 02:43:33;;;;;;;2.22;1.90;;;18.30;99.90;;;;;;5015359;28;20037;-69
2022/08/21 02:45:59;;;;;;;2.00;1.63;;;18.30;99.90;;;;;;5015169;28;20455;-69
2022/08/21 02:48:30;;;;;;;2.25;2.00;;;18.30;99.90;;;;;;5015162;28;20598;-69
2022/08/21 02:51:06;;;;;;;2.10;1.60;;;18.30;99.90;;;;;;5015381;28;20060;-69
2022/08/21 02:53:32;;;;;;;2.13;1.92;;;18.30;99.90;;;;;;5015488;28;20068;-69
2022/08/21 02:56:00;;;;;;;2.40;1.92;;;18.30;99.90;;;;;;5015155;28;20049;-72
2022/08/21 02:58:31;;;;;;;2.80;1.85;;;18.40;99.90;;;;;;5015327;28;20021;-69
2022/08/21 03:00:58;;;;;;;2.03;1.60;;;18.40;99.90;;;;;;5015232;28;20164;-69
2022/08/21 03:03:24;;;;;;;2.20;1.80;;;18.40;99.90;;;;;;5015188;28;20463;-69
2022/08/21 03:05:50;;;;;;;1.83;1.65;;;18.40;99.90;;;;;;5015146;28;20536;-69
2022/08/21 03:08:18;;;;;;;2.25;1.73;;;18.40;99.90;;;;;;5014482;28;20029;-69
2022/08/21 03:10:47;;;;;;;2.97;2.22;;;18.40;99.90;;;;;;4997546;28;20026;-69
2022/08/21 03:13:14;;;;;;;2.40;2.20;;;18.40;99.90;;;;;;5014345;28;20537;-70
2022/08/21 03:15:40;;;;;;;3.22;2.55;;;18.40;99.90;;;;;;5014557;28;20041;-69
2022/08/21 03:18:06;;;;;;;2.42;2.03;;;18.40;99.90;;;;;;5014292;28;20450;-69
2022/08/21 03:20:35;;;;;;;1.83;1.67;;;18.40;99.90;;;;;;5015183;28;20403;-69
2022/08/21 03:23:03;;;;;;;2.25;2.00;;;18.40;99.90;;;;;;5011040;28;20033;-70
2022/08/21 03:25:31;;;;;;;1.85;1.50;;;18.40;99.90;;;;;;5014650;28;20029;-69
2022/08/21 03:27:58;;;;;;;1.58;1.38;;;18.40;99.90;;;;;;5014755;28;20375;-69
2022/08/21 03:30:24;;;;;;;3.17;2.08;;;18.40;99.90;;;;;;5014263;28;20040;-69
2022/08/21 03:32:50;;;;;;;3.92;1.83;;;18.40;99.90;;;;;;5014600;28;20109;-69
2022/08/21 03:35:16;;;;;;;1.70;1.60;;;18.50;99.90;;;;;;5014233;28;20030;-69
2022/08/21 03:37:42;;;;;;;2.40;1.80;;;18.50;99.90;;;;;;5011171;28;20061;-69
2022/08/21 03:40:09;;;;;;;1.85;1.50;;;18.50;99.90;;;;;;5013848;28;20054;-69
2022/08/21 03:42:35;;;;;;;1.95;1.48;;;18.50;99.90;;;;;;5014263;28;20087;-69
2022/08/21 03:45:01;;;;;;;2.08;1.33;;;18.50;99.90;;;;;;5014354;28;20113;-69
2022/08/21 03:47:27;;;;;;;2.95;1.95;;;18.50;99.90;;;;;;5013477;28;20111;-70
2022/08/21 03:49:53;;;;;;;1.90;1.60;;;18.50;99.90;;;;;;5014264;28;20037;-69
2022/08/21 03:52:19;;;;;;;2.22;2.03;;;18.50;99.90;;;;;;5013821;28;20034;-69
2022/08/21 03:54:45;;;;;;;1.80;1.33;;;18.50;99.90;;;;;;5013949;28;20402;-69
2022/08/21 03:57:11;;;;;;;1.90;1.70;;;18.50;99.90;;;;;;5013745;28;20030;-69
2022/08/21 03:59:38;;;;;;;1.23;1.10;;;18.50;99.90;;;;;;5014102;28;20133;-69
2022/08/21 04:02:06;;;;;;;1.70;1.33;;;18.50;99.90;;;;;;5013496;28;20026;-70
2022/08/21 04:04:32;;;;;;;1.10;1.02;;;18.50;99.90;;;;;;5014007;28;20038;-69
2022/08/21 04:06:58;;;;;;;1.40;1.13;;;18.50;99.90;;;;;;5014045;28;20030;-68
2022/08/21 04:09:25;;;;;;;1.17;1.08;;;18.50;99.90;;;;;;5013516;28;20034;-69
2022/08/21 04:11:51;;;;;;;1.38;1.20;;;18.40;99.90;;;;;;5013914;28;20040;-68
2022/08/21 04:14:17;;;;;;;0.98;0.85;;;18.40;99.90;;;;;;5013440;28;20453;-69
2022/08/21 04:16:43;;;;;;;1.30;0.98;;;18.40;99.90;;;;;;5013831;28;20030;-69
2022/08/21 04:19:09;;;;;;;1.10;1.00;;;18.40;99.90;;;;;;5012797;28;20109;-69
2022/08/21 04:21:37;;;;;;;0.88;0.77;;;18.40;99.90;;;;;;5013919;28;20033;-69
2022/08/21 04:24:03;;;;;;;1.52;1.00;;;18.40;99.90;;;;;;5013392;28;20034;-69
2022/08/21 04:26:30;;;;;;;2.00;1.00;;;18.50;99.90;;;;;;5013303;28;20033;-69
2022/08/21 04:28:57;;;;;;;0.98;0.90;;;18.40;99.90;;;;;;5013701;28;20057;-69
2022/08/21 04:31:23;;;;;;;1.20;1.10;;;18.50;99.90;;;;;;5013174;28;20061;-69
2022/08/21 04:33:50;;;;;;;1.88;1.33;;;18.50;99.90;;;;;;5013534;28;20022;-69
2022/08/21 04:36:16;;;;;;;1.73;1.05;;;18.50;99.90;;;;;;5013101;28;20034;-70
2022/08/21 04:38:41;;;;;;;1.00;0.93;;;18.50;99.90;;;;;;5013642;28;20022;-69
2022/08/21 04:41:07;;;;;;;2.15;1.50;;;18.50;99.90;;;;;;5013343;28;20026;-70
2022/08/21 04:43:33;;;;;;;1.23;1.02;;;18.50;99.90;;;;;;5013228;28;20057;-69
2022/08/21 04:46:00;;;;;;;1.63;1.52;;;18.50;99.90;;;;;;5013795;28;20065;-69
2022/08/21 04:48:26;;;;;;;1.58;1.40;;;18.50;99.90;;;;;;5013015;28;20418;-69
2022/08/21 04:51:00;;;;;;;1.08;0.98;;;18.50;99.90;;;;;;5013421;28;20200;-69
2022/08/21 04:53:58;;;;;;;1.15;1.02;;;18.60;99.90;;;;;;5012975;28;20770;-69
2022/08/21 04:56:26;;;;;;;1.95;1.67;;;18.60;99.90;;;;;;5012916;28;20030;-70
2022/08/21 04:58:55;;;;;;;1.77;1.50;;;18.60;99.90;;;;;;5012916;28;20379;-69
2022/08/21 05:01:24;;;;;;;1.65;1.40;;;18.60;99.90;;;;;;5012646;28;20037;-69
2022/08/21 05:03:52;;;;;;;2.63;1.35;;;18.60;99.90;;;;;;5013025;28;20065;-70
2022/08/21 05:06:18;;;;;;;2.17;1.60;;;18.70;99.90;;;;;;5012819;28;20112;-70
2022/08/21 05:08:46;;;;;;;4.20;1.98;;;18.60;99.90;;;;;;5013395;28;20030;-69
2022/08/21 05:11:13;;;;;;;1.50;1.40;;;18.70;99.90;;;;;;5012423;28;20022;-69
2022/08/21 05:13:41;;;;;;;1.50;1.38;;;18.70;99.90;;;;;;5013237;28;20026;-68
2022/08/21 05:16:07;;;;;;;1.90;1.45;;;18.70;99.90;;;;;;5012928;28;20092;-67
2022/08/21 05:18:32;;;;;;;2.25;1.70;;;18.80;99.90;;;;;;5012623;28;20030;-68
2022/08/21 05:20:58;;;;;;;1.60;1.50;;;18.80;99.90;;;;;;5013069;28;20395;-68
2022/08/21 05:23:24;;;;;;;1.73;1.58;;;18.80;99.90;;;;;;5012386;28;20027;-68
2022/08/21 05:25:51;;;;;;;2.00;1.60;;;18.80;99.90;;;;;;5009640;28;20141;-69
2022/08/21 05:28:17;;;;;;;1.80;1.48;;;18.80;99.90;;;;;;5012471;28;20348;-70
2022/08/21 05:30:43;;;;;;;1.70;1.50;;;18.80;99.90;;;;;;5010517;28;20026;-69
2022/08/21 05:33:09;;;;;;;1.77;1.50;;;18.90;99.90;;;;;;5013208;28;20111;-69
2022/08/21 05:35:37;;;;;;;2.15;1.65;;;19.00;99.90;;;;;;5012750;28;20152;-69
2022/08/21 05:38:04;;;;;;;2.00;1.73;;;19.10;99.90;;;;;;5012756;28;20102;-69
2022/08/21 05:40:31;;;;;;;2.13;1.50;;;19.20;99.90;;;;;;5012274;28;20038;-69
2022/08/21 05:42:58;;;;;;;1.73;1.63;;;19.20;99.90;;;;;;5012726;28;20030;-69
2022/08/21 05:45:27;;;;;;;2.55;1.55;;;19.30;99.90;;;;;;5012211;28;20030;-70
2022/08/21 05:47:53;;;;;;;4.40;1.70;;;19.30;99.90;;;;;;5012347;28;20040;-69
2022/08/21 05:50:19;;;;;;;2.20;1.85;;;19.30;99.90;;;;;;4994676;28;20370;-70
2022/08/21 05:52:44;;;;;;;2.92;1.92;;;19.40;99.90;;;;;;5012588;28;20534;-69
2022/08/21 05:55:10;;;;;;;2.55;1.80;;;19.40;99.90;;;;;;5012585;28;20467;-69
2022/08/21 05:57:36;;;;;;;2.53;1.63;;;19.40;99.90;;;;;;5012613;28;20477;-69
2022/08/21 06:00:03;;;;;;;1.90;1.70;;;19.50;99.90;;;;;;5012542;28;20026;-69
2022/08/21 06:02:30;;;;;;;2.85;1.65;;;19.60;99.90;;;;;;5012171;28;20060;-70
2022/08/21 06:04:56;;;;;;;1.95;1.75;;;19.70;99.90;;;;;;5012493;28;20033;-69
2022/08/21 06:07:22;;;;;;;2.28;1.70;;;19.80;99.90;;;;;;5011971;28;20435;-69
2022/08/21 06:09:48;;;;;;;1.67;1.58;;;20.00;99.90;;;;;;5014005;28;20056;-69
2022/08/21 06:12:14;;;;;;;3.28;1.92;;;20.10;99.90;;;;;;5015642;28;20391;-69
2022/08/21 06:14:41;;;;;;;2.00;1.73;;;20.20;99.90;;;;;;5016008;28;20038;-69
2022/08/21 06:17:10;;;;;;;2.42;1.88;;;20.20;99.90;;;;;;5015835;28;20367;-69
2022/08/21 06:19:37;;;;;;;1.70;1.48;;;20.20;99.90;;;;;;5015466;28;20061;-69
2022/08/21 06:22:03;;;;;;;2.65;1.90;;;20.10;99.90;;;;;;5016013;28;20056;-69
2022/08/21 06:24:29;;;;;;;1.80;1.52;;;20.10;99.90;;;;;;5015700;28;20064;-69
2022/08/21 06:26:55;;;;;;;1.70;1.60;;;20.10;99.90;;;;;;5015948;28;20165;-69
2022/08/21 06:29:22;;;;;;;1.80;1.50;;;20.10;99.90;;;;;;5015345;28;20097;-70
2022/08/21 06:31:49;;;;;;;2.17;1.80;;;20.10;99.90;;;;;;5016033;28;20037;-69
2022/08/21 06:34:15;;;;;;;1.65;1.30;;;20.10;99.90;;;;;;5015277;28;20034;-70
2022/08/21 06:36:41;;;;;;;1.80;1.40;;;20.10;99.90;;;;;;5015548;28;20072;-69
2022/08/21 06:39:07;;;;;;;1.55;1.45;;;20.10;99.90;;;;;;5015688;28;20101;-69
2022/08/21 06:41:33;;;;;;;2.33;1.80;;;20.10;99.90;;;;;;5015315;28;20033;-69
2022/08/21 06:43:59;;;;;;;2.60;1.90;;;20.10;99.90;;;;;;5015287;28;20520;-69
2022/08/21 06:46:26;;;;;;;2.67;1.83;;;20.10;99.90;;;;;;5014866;28;20033;-69
2022/08/21 06:48:52;;;;;;;4.50;1.65;;;20.20;99.90;;;;;;5015307;28;20470;-69
2022/08/21 06:51:18;;;;;;;1.75;1.55;;;20.20;99.90;;;;;;5015292;28;20044;-69
2022/08/21 06:53:45;;;;;;;2.35;1.83;;;20.20;99.90;;;;;;5015777;28;20493;-69
2022/08/21 06:56:10;;;;;;;2.17;1.70;;;20.20;99.90;;;;;;5015397;28;20108;-69
2022/08/21 06:58:36;;;;;;;1.67;1.55;;;20.20;99.90;;;;;;5014574;28;20513;-69
2022/08/21 07:01:02;;;;;;;2.47;1.92;;;20.10;99.90;;;;;;5015227;28;20140;-69
2022/08/21 07:03:34;;;;;;;3.15;1.95;;;20.10;99.90;;;;;;5014794;28;20116;-69
2022/08/21 07:06:00;;;;;;;2.13;1.73;;;20.10;99.90;;;;;;5015202;28;20038;-69
2022/08/21 07:08:27;;;;;;;3.17;1.95;;;20.00;99.90;;;;;;5014509;28;20040;-70
2022/08/21 07:10:55;;;;;;;2.65;2.10;;;20.00;99.90;;;;;;5015056;28;20026;-69
2022/08/21 07:13:21;;;;;;;4.18;1.92;;;20.00;99.90;;;;;;5014614;28;20100;-70
2022/08/21 07:15:47;;;;;;;2.10;1.90;;;20.00;99.90;;;;;;5014951;28;20124;-69
2022/08/21 07:18:13;;;;;;;2.67;1.77;;;20.00;99.90;;;;;;5014824;28;20114;-69
2022/08/21 07:20:40;;;;;;;3.83;2.20;;;19.90;99.90;;;;;;5013936;28;20410;-69
2022/08/21 07:23:11;;;;;;;2.10;1.80;;;19.90;99.90;;;;;;5013105;28;20038;-70
2022/08/21 07:25:37;;;;;;;2.35;1.80;;;19.90;99.90;;;;;;4995262;28;20038;-70
2022/08/21 07:28:03;;;;;;;4.47;1.90;;;19.90;99.90;;;;;;4995269;28;20482;-69
2022/08/21 07:30:29;;;;;;;4.43;1.95;;;20.00;99.90;;;;;;4994395;28;20026;-70
2022/08/21 07:32:55;;;;;;;2.60;1.92;;;19.90;99.90;;;;;;4995049;28;20097;-69
2022/08/21 07:35:21;;;;;;;2.72;2.05;;;19.90;99.90;;;;;;4994256;28;20069;-70
2022/08/21 07:37:47;;;;;;;3.15;2.30;;;19.80;99.90;;;;;;4980112;28;20023;-70
2022/08/21 07:40:13;;;;;;;2.65;2.17;;;19.80;99.90;;;;;;4994951;28;20044;-69
2022/08/21 07:42:43;;;;;;;1.92;1.75;;;19.80;99.90;;;;;;4994227;28;20026;-70
2022/08/21 07:45:09;;;;;;;3.22;2.00;;;19.80;99.90;;;;;;4994678;28;20034;-69
2022/08/21 07:47:35;;;;;;;2.10;1.85;;;19.80;99.90;;;;;;4994648;28;20062;-69
2022/08/21 07:50:00;;;;;;;2.15;1.83;;;19.80;99.90;;;;;;4994464;28;20497;-69
2022/08/21 07:52:26;;;;;;;2.33;1.92;;;19.80;99.90;;;;;;4994147;28;20023;-70
2022/08/21 07:54:52;;;;;;;2.25;1.95;;;19.80;99.90;;;;;;4994894;28;20030;-69
2022/08/21 07:57:18;;;;;;;4.45;1.90;;;19.80;99.90;;;;;;4994638;28;20097;-69
2022/08/21 07:59:44;;;;;;;2.33;1.88;;;19.80;99.90;;;;;;4994258;28;20424;-70
2022/08/21 08:02:09;;;;;;;4.63;1.90;;;19.80;99.90;;;;;;4994384;28;20120;-69
2022/08/21 08:04:35;;;;;;;2.45;1.90;;;19.80;99.90;;;;;;4994028;28;20030;-69
2022/08/21 08:07:01;;;;;;;2.03;1.83;;;19.80;99.90;;;;;;4994388;28;20049;-69
2022/08/21 08:09:26;;;;;;;2.42;1.90;;;19.80;99.90;;;;;;4993597;28;20027;-69
2022/08/21 08:11:52;;;;;;;2.35;1.90;;;19.80;99.90;;;;;;4994440;28;20037;-69
2022/08/21 08:14:17;;;;;;;3.03;2.63;;;19.80;99.90;;;;;;4994334;28;20105;-69
2022/08/21 08:16:43;;;;;;;2.90;2.40;;;19.90;99.90;;;;;;4993908;28;20113;-69
2022/08/21 08:19:09;;;;;;;2.20;2.00;;;20.00;99.90;;;;;;4993977;28;20117;-69
2022/08/21 08:21:37;;;;;;;3.50;2.75;;;20.10;99.90;;;;;;4993838;28;20448;-69
2022/08/21 08:24:03;;;;;;;2.33;2.03;;;20.10;99.90;;;;;;4994010;28;20077;-69
2022/08/21 08:26:28;;;;;;;2.55;1.95;;;20.10;99.90;;;;;;4959844;28;20030;-69
2022/08/21 08:28:54;;;;;;;3.08;2.22;;;20.10;99.90;;;;;;4993924;28;20031;-69
2022/08/21 08:31:20;;;;;;;2.85;2.15;;;20.20;99.90;;;;;;4994004;28;20034;-69
2022/08/21 08:33:45;;;;;;;2.75;2.20;;;20.10;99.90;;;;;;4992756;28;20031;-70
2022/08/21 08:36:17;;;;;;;2.28;2.08;;;20.10;99.90;;;;;;4994196;28;20038;-69
2022/08/21 08:38:43;;;;;;;2.35;1.90;;;20.00;99.90;;;;;;4993504;28;20548;-69
2022/08/21 08:41:14;;;;;;;2.88;2.28;;;20.00;99.90;;;;;;4993611;28;20027;-69
2022/08/21 08:43:47;;;;;;;2.58;2.05;;;20.00;99.90;;;;;;4993359;28;20037;-69
2022/08/21 08:46:18;;;;;;;2.05;1.85;;;20.10;99.90;;;;;;4993817;28;20081;-69
2022/08/21 08:48:56;;;;;;;3.13;2.17;;;20.10;99.90;;;;;;4993324;28;20590;-69
2022/08/21 08:51:42;;;;;;;2.75;1.83;;;20.10;99.90;;;;;;4993551;28;20031;-69
2022/08/21 08:54:14;;;;;;;1.92;1.70;;;20.20;99.90;;;;;;4993628;28;20511;-69
2022/08/21 08:56:41;;;;;;;1.83;1.70;;;20.30;99.90;;;;;;4993161;28;20038;-69
2022/08/21 08:59:17;;;;;;;2.80;2.03;;;20.40;99.90;;;;;;4993460;28;20105;-69
2022/08/21 09:01:43;;;;;;;2.25;1.70;;;20.40;99.90;;;;;;4993429;28;20030;-69
2022/08/21 09:04:12;;;;;;;4.55;2.22;;;20.40;99.90;;;;;;4993328;28;20056;-69
2022/08/21 09:07:08;;;;;;;2.53;2.20;;;20.40;99.90;;;;;;4993080;28;20030;-69
2022/08/21 09:10:11;;;;;;;2.15;1.83;;;20.50;99.90;;;;;;4992820;28;20506;-70
2022/08/21 09:13:08;;;;;;;2.13;1.92;;;20.60;99.90;;;;;;4992867;28;20022;-68
2022/08/21 09:16:08;;;;;;;2.38;1.90;;;20.60;99.90;;;;;;4993014;28;20422;-69
2022/08/21 09:19:15;;;;;;;2.83;1.83;;;20.60;99.90;;;;;;4975086;28;20165;-67
2022/08/21 09:21:48;;;;;;;2.67;1.85;;;20.70;99.90;;;;;;4896697;29;20506;-68
2022/08/21 09:24:19;;;;;;;2.45;1.83;;;20.70;99.90;;;;;;4895268;29;20039;-68
2022/08/21 09:26:56;;;;;;;1.60;1.40;;;20.80;99.90;;;;;;4928829;28;20047;-69
2022/08/21 09:29:26;;;;;;;1.52;1.42;;;20.90;99.90;;;;;;4960529;28;20035;-69
2022/08/21 09:31:52;;;;;;;1.23;1.10;;;20.90;99.90;;;;;;4973841;28;20084;-68
2022/08/21 09:34:26;;;;;;;1.17;1.08;;;20.90;99.90;;;;;;4973697;28;20117;-69
2022/08/21 09:36:52;;;;;;;1.55;1.30;;;20.90;99.90;;;;;;4973141;28;20482;-69
2022/08/21 09:39:38;;;;;;;1.80;1.10;;;20.80;99.90;;;;;;4973636;28;20027;-68
2022/08/21 09:42:06;;;;;;;1.20;1.10;;;20.80;99.90;;;;;;4973756;28;20022;-68
2022/08/21 09:44:39;;;;;;;1.08;1.00;;;20.70;99.90;;;;;;4975792;28;20035;-69
2022/08/21 09:47:06;;;;;;;2.67;1.25;;;20.70;99.90;;;;;;4977541;28;20031;-69
2022/08/21 09:49:38;;;;;;;1.40;1.08;;;20.70;99.90;;;;;;4977229;28;20489;-69
2022/08/21 09:52:15;;;;;;;1.08;0.90;;;20.70;99.90;;;;;;4977587;28;20063;-68
2022/08/21 09:54:44;;;;;;;1.48;1.30;;;20.80;99.90;;;;;;4977188;28;20034;-68
2022/08/21 09:59:55;;;;;;;1.17;1.05;;;21.10;99.90;;;;;;4977322;28;20038;-69
2022/08/21 10:02:31;;;;;;;0.93;0.85;;;21.20;99.90;;;;;;4977339;28;20094;-68
2022/08/21 10:05:15;;;;;;;1.30;0.85;;;21.40;99.90;;;;;;4977324;28;20034;-69
2022/08/21 10:07:41;;;;;;;2.08;0.90;;;21.40;99.90;;;;;;4977004;28;20526;-69
2022/08/21 10:10:28;;;;;;;0.90;0.80;;;21.40;99.90;;;;;;4977253;28;20031;-68
2022/08/21 10:13:34;;;;;;;1.08;0.65;;;21.30;99.90;;;;;;4976677;28;20057;-69
2022/08/21 10:16:18;;;;;;;1.13;0.70;;;21.30;99.90;;;;;;4977253;28;20172;-68
2022/08/21 10:19:22;;;;;;;1.00;0.70;;;21.30;99.90;;;;;;4976789;28;20084;-68
2022/08/21 10:22:29;;;;;;;0.50;0.50;;;21.30;99.90;;;;;;4966020;28;20061;-69
2022/08/21 10:25:11;;;;;;;1.05;0.80;;;21.10;99.90;;;;;;4976643;28;20093;-69
2022/08/21 10:28:05;;;;;;;1.67;1.05;;;21.00;99.90;;;;;;4977465;28;20035;-69
2022/08/21 10:30:31;;;;;;;1.65;1.00;;;21.00;99.90;;;;;;4976926;28;20031;-69
2022/08/21 10:33:05;;;;;;;1.30;1.13;;;20.90;99.90;;;;;;4976366;28;20126;-69
2022/08/21 10:35:33;;;;;;;1.40;1.30;;;20.80;99.90;;;;;;4976915;28;20043;-69
2022/08/21 10:38:36;;;;;;;4.47;1.17;;;20.80;99.90;;;;;;4976627;28;20019;-70
2022/08/21 10:41:26;;;;;;;1.30;1.20;;;20.70;99.90;;;;;;4976712;28;20089;-69
2022/08/21 10:44:13;;;;;;;1.55;1.30;;;20.70;99.90;;;;;;4975956;28;20034;-69
2022/08/21 10:46:45;;;;;;;1.60;1.30;;;20.70;99.90;;;;;;4976198;28;20114;-69
2022/08/21 10:49:22;;;;;;;1.70;1.40;;;20.60;99.90;;;;;;4976511;28;20031;-69
2022/08/21 10:52:21;;;;;;;1.63;1.17;;;20.60;99.90;;;;;;4976121;28;20387;-70
2022/08/21 10:54:59;;;;;;;1.45;1.20;;;20.60;99.90;;;;;;4975706;28;20114;-70
2022/08/21 10:57:39;;;;;;;2.55;1.60;;;20.50;99.90;;;;;;4976582;28;20027;-69
2022/08/21 11:00:11;;;;;;;2.65;1.60;;;20.50;99.90;;;;;;4976430;28;20110;-68
2022/08/21 11:02:56;;;;;;;1.25;1.10;;;20.40;99.90;;;;;;4976036;28;20049;-69
2022/08/21 11:05:35;;;;;;;1.50;1.30;;;20.40;99.90;;;;;;4976207;28;20150;-68
2022/08/21 11:08:06;;;;;;;1.35;1.15;;;20.40;99.90;;;;;;4975887;28;20027;-69
2022/08/21 11:10:44;;;;;;;1.45;1.17;;;20.40;99.90;;;;;;4976109;28;20034;-68
2022/08/21 11:13:37;;;;;;;1.20;1.10;;;20.50;99.90;;;;;;4976126;28;20027;-68
2022/08/21 11:16:10;;;;;;;1.67;0.90;;;20.50;99.90;;;;;;4975888;28;20428;-67
2022/08/21 11:18:55;;;;;;;0.75;0.70;;;20.60;99.90;;;;;;4970773;28;20376;-69
2022/08/21 11:21:43;;;;;;;0.90;0.73;;;20.60;99.90;;;;;;4956702;28;20087;-69
2022/08/21 11:24:34;;;;;;;2.47;0.68;;;20.70;99.90;;;;;;4956784;28;20035;-69
2022/08/21 11:27:12;;;;;;;0.50;0.50;;;20.80;99.90;;;;;;4973599;28;20043;-69
2022/08/21 11:29:40;;;;;;;1.30;0.80;;;20.80;99.90;;;;;;4975457;28;20444;-68
2022/08/21 11:32:24;;;;;;;1.20;0.70;;;20.90;99.90;;;;;;4975737;28;20027;-71
2022/08/21 11:35:10;;;;;;;0.70;0.70;;;20.90;99.90;;;;;;4975400;28;20034;-69
2022/08/21 11:37:47;;;;;;;0.90;0.90;;;20.90;99.90;;;;;;4975741;28;20054;-69
2022/08/21 11:40:32;;;;;;;1.35;1.00;;;21.00;99.90;;;;;;4975412;28;20031;-69
2022/08/21 11:43:36;;;;;;;0.98;0.73;;;21.00;99.90;;;;;;4974980;28;20384;-69
2022/08/21 11:46:23;;;;;;;0.77;0.75;;;21.00;99.90;;;;;;4975335;28;20030;-68
2022/08/21 11:49:07;;;;;;;0.80;0.80;;;21.10;99.90;;;;;;4975118;28;20154;-69
2022/08/21 11:51:35;;;;;;;1.52;0.80;;;21.10;99.90;;;;;;4975469;28;20031;-68
2022/08/21 11:54:12;;;;;;;1.63;0.85;;;21.20;99.90;;;;;;4974850;28;20089;-69
2022/08/21 11:56:50;;;;;;;1.20;0.80;;;21.10;99.90;;;;;;4974881;28;20030;-70
2022/08/21 11:59:28;;;;;;;0.70;0.70;;;21.10;99.90;;;;;;4975159;28;20030;-68
2022/08/21 12:01:54;;;;;;;1.27;0.70;;;21.10;99.90;;;;;;4974966;28;20023;-69
2022/08/21 12:04:41;;;;;;;0.88;0.82;;;21.10;99.90;;;;;;4974920;28;20042;-69
2022/08/21 12:07:18;;;;;;;0.90;0.90;;;21.00;99.90;;;;;;4973329;28;20388;-69
2022/08/21 12:10:05;;;;;;;1.17;0.75;;;21.00;99.90;;;;;;4974687;28;20031;-69
2022/08/21 12:12:36;;;;;;;1.00;0.90;;;21.00;99.90;;;;;;4975084;28;20063;-69
2022/08/21 12:15:20;;;;;;;1.00;0.90;;;21.00;99.90;;;;;;4974635;28;20034;-69
2022/08/21 12:18:20;;;;;;;0.77;0.75;;;21.00;99.90;;;;;;4974581;28;20026;-69
2022/08/21 12:21:03;;;;;;;1.88;0.95;;;21.00;99.90;;;;;;5004877;28;20054;-70
2022/08/21 12:23:32;;;;;;;0.73;0.73;;;21.00;99.90;;;;;;5013795;28;20106;-69
2022/08/21 12:26:21;;;;;;;1.70;0.90;;;21.00;99.90;;;;;;5013173;28;20536;-69
2022/08/21 12:28:47;;;;;;;0.85;0.82;;;20.90;99.90;;;;;;5013028;28;20076;-69
2022/08/21 12:31:28;;;;;;;1.38;0.82;;;20.90;99.90;;;;;;5013601;28;20374;-69
2022/08/21 12:34:05;;;;;;;1.05;0.90;;;20.80;99.90;;;;;;5013178;28;20068;-69
2022/08/21 12:36:46;;;;;;;1.42;0.70;;;20.80;99.90;;;;;;5013381;28;20033;-69
2022/08/21 12:39:19;;;;;;;0.90;0.80;;;20.70;99.90;;;;;;5013512;28;20061;-68
2022/08/21 12:42:10;;;;;;;1.40;0.90;;;20.60;99.90;;;;;;5013436;28;20121;-69
2022/08/21 12:45:05;;;;;;;1.05;0.90;;;20.50;99.90;;;;;;5013114;28;20030;-69
2022/08/21 12:47:45;;;;;;;1.00;0.70;;;20.40;99.90;;;;;;5008095;28;20060;-69
2022/08/21 12:50:21;;;;;;;0.60;0.60;;;20.40;99.90;;;;;;5013260;28;20057;-69
2022/08/21 12:53:05;;;;;;;0.60;0.60;;;20.30;99.90;;;;;;5012879;28;20030;-69
2022/08/21 12:55:33;;;;;;;1.02;0.77;;;20.20;99.90;;;;;;5013166;28;20034;-69
2022/08/21 12:58:00;;;;;;;1.85;0.90;;;20.20;99.90;;;;;;5012702;28;20379;-69
2022/08/21 13:00:28;;;;;;;1.58;1.00;;;20.10;99.90;;;;;;5013042;28;20093;-69
2022/08/21 13:02:56;;;;;;;0.95;0.80;;;20.10;99.90;;;;;;5012778;28;20049;-69
2022/08/21 13:05:29;;;;;;;0.93;0.82;;;20.10;99.90;;;;;;5012791;28;20470;-69
2022/08/21 13:07:56;;;;;;;0.98;0.77;;;20.10;99.90;;;;;;5012690;28;20029;-69
2022/08/21 13:10:28;;;;;;;0.95;0.85;;;20.10;99.90;;;;;;5012966;28;20036;-69